Time;durP1;ratioP1;P1;durP2;ratioP2;P2;SDS_P1;SDS_P2;PMS_P1;PMS_P2;Temp;Humidity;BMP_temperature;BMP_pressure;BME280_temperature;BME280_humidity;BME280_pressure;Samples;Min_cycle;Max_cycle;Signal;HPM_P1;HPM_P2
2021/03/22 00:00:47;;;;;;;23.17;11.20;;;1.50;99.90;;;;;;2081003;28;20219;-61
2021/03/22 00:01:49;;;;;;;20.17;12.05;;;1.40;99.90;;;;;;2080073;28;20197;-67
2021/03/22 00:02:50;;;;;;;17.58;12.13;;;1.40;99.90;;;;;;2079743;28;20173;-67
2021/03/22 00:03:51;;;;;;;17.23;10.93;;;1.40;99.90;;;;;;2080624;28;20403;-61
2021/03/22 00:04:51;;;;;;;19.27;11.70;;;1.40;99.90;;;;;;2081371;28;20627;-62
2021/03/22 00:05:53;;;;;;;18.70;12.17;;;1.40;99.90;;;;;;2081409;28;20797;-62
2021/03/22 00:06:54;;;;;;;18.10;11.45;;;1.40;99.90;;;;;;2081449;28;20255;-62
2021/03/22 00:07:55;;;;;;;18.70;11.97;;;1.30;99.90;;;;;;2081164;28;20176;-62
2021/03/22 00:08:57;;;;;;;19.33;11.23;;;1.30;99.90;;;;;;2080471;28;20181;-62
2021/03/22 00:09:58;;;;;;;21.75;11.85;;;1.30;99.90;;;;;;2080328;28;20204;-62
2021/03/22 00:10:59;;;;;;;19.53;11.87;;;1.30;99.90;;;;;;2080621;28;20278;-62
2021/03/22 00:11:59;;;;;;;18.27;11.07;;;1.30;99.90;;;;;;2081237;28;20183;-62
2021/03/22 00:13:02;;;;;;;22.53;12.30;;;1.20;99.90;;;;;;2081118;28;20499;-62
2021/03/22 00:14:02;;;;;;;22.55;12.98;;;1.20;99.90;;;;;;2080997;28;20686;-62
2021/03/22 00:15:05;;;;;;;22.43;12.60;;;1.20;99.90;;;;;;2080628;28;20215;-61
2021/03/22 00:16:08;;;;;;;19.98;11.80;;;1.20;99.90;;;;;;2080572;28;20649;-62
2021/03/22 00:17:09;;;;;;;22.45;11.93;;;1.20;99.90;;;;;;2081230;28;20192;-62
2021/03/22 00:18:16;;;;;;;17.33;11.53;;;1.20;99.90;;;;;;2080961;28;20188;-62
2021/03/22 00:19:17;;;;;;;18.70;11.38;;;1.20;99.90;;;;;;2082628;28;20208;-61
2021/03/22 00:20:19;;;;;;;21.27;12.23;;;1.20;99.90;;;;;;2085538;28;20212;-62
2021/03/22 00:21:21;;;;;;;21.67;12.88;;;1.30;99.90;;;;;;2084541;28;20199;-62
2021/03/22 00:22:22;;;;;;;23.73;12.57;;;1.30;99.90;;;;;;2084137;28;20236;-62
2021/03/22 00:23:23;;;;;;;19.73;12.33;;;1.20;99.90;;;;;;2084770;28;20184;-62
2021/03/22 00:24:24;;;;;;;18.58;12.30;;;1.20;99.90;;;;;;2081837;28;20184;-62
2021/03/22 00:25:25;;;;;;;21.87;12.93;;;1.20;99.90;;;;;;2081101;28;20188;-62
2021/03/22 00:26:28;;;;;;;20.45;12.68;;;1.20;99.90;;;;;;2081307;28;20598;-62
2021/03/22 00:27:28;;;;;;;20.23;11.52;;;1.20;99.90;;;;;;2080656;28;20192;-62
2021/03/22 00:28:30;;;;;;;20.30;12.57;;;1.20;99.90;;;;;;2080582;28;20222;-62
2021/03/22 00:29:30;;;;;;;20.95;11.73;;;1.20;99.90;;;;;;2081035;28;20180;-62
2021/03/22 00:30:36;;;;;;;18.50;11.43;;;1.20;99.90;;;;;;2081021;28;20503;-61
2021/03/22 00:31:37;;;;;;;20.55;12.23;;;1.10;99.90;;;;;;2080531;28;20174;-61
2021/03/22 00:32:38;;;;;;;20.20;11.93;;;1.10;99.90;;;;;;2080925;28;20690;-62
2021/03/22 00:33:39;;;;;;;20.60;12.40;;;1.20;99.90;;;;;;2081109;28;20253;-62
2021/03/22 00:34:39;;;;;;;22.07;12.80;;;1.20;99.90;;;;;;2081055;28;20177;-61
2021/03/22 00:35:41;;;;;;;19.67;12.13;;;1.20;99.90;;;;;;2080970;28;20272;-62
2021/03/22 00:36:41;;;;;;;18.48;12.43;;;1.10;99.90;;;;;;2080995;28;20184;-61
2021/03/22 00:37:42;;;;;;;24.60;13.07;;;1.10;99.90;;;;;;2081129;28;20196;-62
2021/03/22 00:38:43;;;;;;;18.07;12.30;;;1.20;99.90;;;;;;2080342;28;20863;-61
2021/03/22 00:39:44;;;;;;;21.37;12.83;;;1.20;99.90;;;;;;2080476;28;20390;-62
2021/03/22 00:40:46;;;;;;;23.57;12.73;;;1.20;99.90;;;;;;2080834;28;20192;-62
2021/03/22 00:41:46;;;;;;;24.30;13.23;;;1.20;99.90;;;;;;2080467;28;20192;-62
2021/03/22 00:42:47;;;;;;;19.27;11.73;;;1.20;99.90;;;;;;2080935;28;20267;-62
2021/03/22 00:43:48;;;;;;;17.57;11.97;;;1.20;99.90;;;;;;2080933;28;20566;-62
2021/03/22 00:44:49;;;;;;;22.33;12.27;;;1.20;99.90;;;;;;2081017;28;20825;-62
2021/03/22 00:45:56;;;;;;;16.23;11.10;;;1.20;99.90;;;;;;2080967;28;20288;-61
2021/03/22 00:46:57;;;;;;;21.40;12.85;;;1.20;99.90;;;;;;2080973;28;20624;-62
2021/03/22 00:47:58;;;;;;;21.03;11.67;;;1.10;99.90;;;;;;2081013;28;20181;-62
2021/03/22 00:48:59;;;;;;;18.17;11.68;;;1.20;99.90;;;;;;2080991;28;20572;-62
2021/03/22 00:50:02;;;;;;;19.20;11.97;;;1.20;99.90;;;;;;2080885;28;20230;-63
2021/03/22 00:51:07;;;;;;;20.30;12.15;;;1.20;99.90;;;;;;2080329;28;20202;-62
2021/03/22 00:52:10;;;;;;;17.95;12.18;;;1.20;99.90;;;;;;2080814;28;20613;-62
2021/03/22 00:53:15;;;;;;;21.95;12.40;;;1.20;99.90;;;;;;2081059;28;20256;-61
2021/03/22 00:54:15;;;;;;;20.38;12.63;;;1.10;99.90;;;;;;2081017;28;20192;-62
2021/03/22 00:55:17;;;;;;;18.00;11.70;;;1.10;99.90;;;;;;2081009;28;20187;-62
2021/03/22 00:56:18;;;;;;;20.15;12.68;;;1.20;99.90;;;;;;2080991;28;20189;-62
2021/03/22 00:57:18;;;;;;;21.03;12.70;;;1.10;99.90;;;;;;2080729;28;20213;-62
2021/03/22 00:58:19;;;;;;;24.80;12.93;;;1.20;99.90;;;;;;2081019;28;20183;-62
2021/03/22 00:59:20;;;;;;;20.33;12.07;;;1.20;99.90;;;;;;2080936;28;20672;-62
2021/03/22 01:00:31;;;;;;;23.30;12.93;;;1.20;99.90;;;;;;2080858;28;20278;-62
2021/03/22 01:01:32;;;;;;;20.55;12.10;;;1.20;99.90;;;;;;2080332;28;20187;-62
2021/03/22 01:02:33;;;;;;;21.25;11.35;;;1.30;99.90;;;;;;2080870;28;20223;-62
2021/03/22 01:03:35;;;;;;;19.03;11.80;;;1.30;99.90;;;;;;2080902;28;20570;-62
2021/03/22 01:04:36;;;;;;;23.48;12.85;;;1.30;99.90;;;;;;2080923;28;20181;-62
2021/03/22 01:05:37;;;;;;;23.73;12.70;;;1.20;99.90;;;;;;2080876;28;20184;-61
2021/03/22 01:06:38;;;;;;;21.73;11.97;;;1.20;99.90;;;;;;2080966;28;20176;-61
2021/03/22 01:07:39;;;;;;;21.75;12.75;;;1.30;99.90;;;;;;2080819;28;20568;-61
2021/03/22 01:08:41;;;;;;;21.00;12.83;;;1.30;99.90;;;;;;2080851;28;20185;-60
2021/03/22 01:09:42;;;;;;;22.65;11.82;;;1.30;99.90;;;;;;2080759;28;20274;-63
2021/03/22 01:10:54;;;;;;;17.73;12.00;;;1.30;99.90;;;;;;2080737;28;20189;-60
2021/03/22 01:11:57;;;;;;;21.88;11.50;;;1.30;99.90;;;;;;2080760;28;20181;-61
2021/03/22 01:12:59;;;;;;;21.52;11.48;;;1.30;99.90;;;;;;2080938;28;20231;-61
2021/03/22 01:14:00;;;;;;;18.77;11.82;;;1.30;99.90;;;;;;2080648;28;20184;-60
2021/03/22 01:15:01;;;;;;;20.63;11.90;;;1.30;99.90;;;;;;2080882;28;20176;-60
2021/03/22 01:16:04;;;;;;;21.03;11.53;;;1.30;99.90;;;;;;2080839;28;20234;-60
2021/03/22 01:17:05;;;;;;;20.25;12.32;;;1.30;99.90;;;;;;2080388;28;20184;-61
2021/03/22 01:18:08;;;;;;;19.77;12.50;;;1.30;99.90;;;;;;2080213;28;20189;-60
2021/03/22 01:19:17;;;;;;;21.00;11.85;;;1.30;99.90;;;;;;2080701;28;20212;-61
2021/03/22 01:20:33;;;;;;;19.83;12.52;;;1.20;99.90;;;;;;2080724;28;20205;-62
2021/03/22 01:21:41;;;;;;;21.13;13.27;;;1.20;99.90;;;;;;2079660;28;20215;-62
2021/03/22 01:22:41;;;;;;;19.60;12.15;;;1.20;99.90;;;;;;2080309;28;20241;-62
2021/03/22 01:23:43;;;;;;;24.83;11.67;;;1.20;99.90;;;;;;2080784;28;20185;-61
2021/03/22 01:24:43;;;;;;;21.17;12.93;;;1.20;99.90;;;;;;2080633;28;20169;-61
2021/03/22 01:25:44;;;;;;;18.93;11.83;;;1.20;99.90;;;;;;2080879;28;20271;-61
2021/03/22 01:26:46;;;;;;;19.93;11.53;;;1.20;99.90;;;;;;2080802;28;20234;-60
2021/03/22 01:27:47;;;;;;;19.85;11.60;;;1.20;99.90;;;;;;2080937;28;20176;-61
2021/03/22 01:28:47;;;;;;;21.73;11.40;;;1.20;99.90;;;;;;2080733;28;20201;-60
2021/03/22 01:29:48;;;;;;;20.60;12.03;;;1.20;99.90;;;;;;2080778;28;20200;-61
2021/03/22 01:30:54;;;;;;;23.37;12.30;;;1.20;99.90;;;;;;2080287;28;20737;-60
2021/03/22 01:31:58;;;;;;;23.15;11.95;;;1.10;99.90;;;;;;2080788;28;20165;-61
2021/03/22 01:32:59;;;;;;;19.45;11.02;;;1.10;99.90;;;;;;2080776;28;20201;-66
2021/03/22 01:34:00;;;;;;;22.48;11.63;;;1.20;99.90;;;;;;2080883;28;20185;-61
2021/03/22 01:35:01;;;;;;;21.30;11.57;;;1.20;99.90;;;;;;2081179;28;20846;-61
2021/03/22 01:36:11;;;;;;;23.23;11.13;;;1.20;99.90;;;;;;2082551;28;20230;-60
2021/03/22 01:37:12;;;;;;;18.17;11.00;;;1.20;99.90;;;;;;2082520;28;20168;-61
2021/03/22 01:38:13;;;;;;;21.97;12.07;;;1.30;99.90;;;;;;2082386;28;20591;-61
2021/03/22 01:39:18;;;;;;;21.20;11.50;;;1.30;99.90;;;;;;2082222;28;20299;-61
2021/03/22 01:41:05;;;;;;;20.20;11.40;;;1.30;99.90;;;;;;2082099;28;20704;-61
2021/03/22 01:42:39;;;;;;;20.23;11.60;;;1.30;99.90;;;;;;2081795;28;20185;-61
2021/03/22 01:44:15;;;;;;;20.70;10.30;;;1.20;99.90;;;;;;2086439;28;20191;-61
2021/03/22 01:45:16;;;;;;;20.85;9.93;;;1.20;99.90;;;;;;2081696;28;20169;-60
2021/03/22 01:46:17;;;;;;;20.50;11.00;;;1.30;99.90;;;;;;2081422;28;20406;-61
2021/03/22 01:47:22;;;;;;;19.47;11.07;;;1.30;99.90;;;;;;2080844;28;20192;-61
2021/03/22 01:48:22;;;;;;;21.35;10.68;;;1.40;99.90;;;;;;2081806;28;20172;-60
2021/03/22 01:49:28;;;;;;;21.77;10.90;;;1.40;99.90;;;;;;2073481;28;20830;-61
2021/03/22 01:50:31;;;;;;;20.83;11.23;;;1.40;99.90;;;;;;2081665;28;20527;-61
2021/03/22 01:51:35;;;;;;;23.02;10.68;;;1.40;99.90;;;;;;2081429;28;20558;-61
2021/03/22 01:52:39;;;;;;;21.10;10.68;;;1.40;99.90;;;;;;2081741;28;20223;-61
2021/03/22 01:53:40;;;;;;;19.38;10.18;;;1.40;99.90;;;;;;2081892;28;20197;-61
2021/03/22 01:54:41;;;;;;;22.87;10.80;;;1.40;99.90;;;;;;2081790;28;20275;-61
2021/03/22 01:55:42;;;;;;;20.95;11.20;;;1.40;99.90;;;;;;2073402;28;20573;-60
2021/03/22 01:56:49;;;;;;;19.63;11.17;;;1.40;99.90;;;;;;2081876;28;20196;-61
2021/03/22 01:57:50;;;;;;;20.25;10.98;;;1.40;99.90;;;;;;2082520;28;20625;-60
2021/03/22 01:58:52;;;;;;;22.83;10.80;;;1.40;99.90;;;;;;2082622;28;20231;-61
2021/03/22 02:00:24;;;;;;;18.33;10.73;;;1.40;99.90;;;;;;2082203;28;20712;-61
2021/03/22 02:01:29;;;;;;;22.23;10.65;;;1.40;99.90;;;;;;2081727;28;20185;-61
2021/03/22 02:02:30;;;;;;;22.65;10.65;;;1.40;99.90;;;;;;2082230;28;20226;-61
2021/03/22 02:03:30;;;;;;;20.02;10.63;;;1.40;99.90;;;;;;2082345;28;20557;-60
2021/03/22 02:04:33;;;;;;;22.43;11.53;;;1.30;99.90;;;;;;2081732;28;20267;-61
2021/03/22 02:05:36;;;;;;;21.67;10.88;;;1.30;99.90;;;;;;2081720;28;20215;-61
2021/03/22 02:06:37;;;;;;;21.10;10.43;;;1.40;99.90;;;;;;2082048;28;20223;-61
2021/03/22 02:07:38;;;;;;;19.20;11.47;;;1.40;99.90;;;;;;2081473;28;20169;-61
2021/03/22 02:08:42;;;;;;;24.40;11.30;;;1.40;99.90;;;;;;2082148;28;20184;-60
2021/03/22 02:09:43;;;;;;;23.50;11.15;;;1.40;99.90;;;;;;2081450;28;20192;-61
2021/03/22 02:10:45;;;;;;;23.60;11.17;;;1.40;99.90;;;;;;2081277;28;20683;-61
2021/03/22 02:11:46;;;;;;;25.70;10.60;;;1.40;99.90;;;;;;2081982;28;20184;-61
2021/03/22 02:12:46;;;;;;;26.30;10.67;;;1.40;99.90;;;;;;2081955;28;20192;-60
2021/03/22 02:13:48;;;;;;;20.53;11.17;;;1.40;99.90;;;;;;2081997;28;20184;-61
2021/03/22 02:14:51;;;;;;;23.80;11.13;;;1.40;99.90;;;;;;2081613;28;20185;-61
2021/03/22 02:16:06;;;;;;;19.80;10.18;;;1.40;99.90;;;;;;2073484;28;20178;-61
2021/03/22 02:17:30;;;;;;;17.63;10.63;;;1.50;99.90;;;;;;2083388;28;20161;-61
2021/03/22 02:18:39;;;;;;;21.13;10.23;;;1.40;99.90;;;;;;2081160;28;20187;-61
2021/03/22 02:20:30;;;;;;;21.58;9.75;;;1.40;99.90;;;;;;2074357;28;20197;-61
2021/03/22 02:22:17;;;;;;;20.42;10.05;;;1.40;99.90;;;;;;2080548;28;20199;-61
2021/03/22 02:23:58;;;;;;;19.90;9.45;;;1.40;99.90;;;;;;2082152;28;20209;-61
2021/03/22 02:25:12;;;;;;;20.50;9.70;;;1.30;99.90;;;;;;2081173;28;20255;-61
2021/03/22 02:26:44;;;;;;;23.15;12.05;;;1.30;99.90;;;;;;2081353;28;20226;-61
2021/03/22 02:28:31;;;;;;;26.13;10.65;;;1.40;99.90;;;;;;2082255;28;20188;-60
2021/03/22 02:29:58;;;;;;;27.00;10.00;;;1.40;99.90;;;;;;2082058;28;20181;-61
2021/03/22 02:31:39;;;;;;;26.92;11.45;;;1.20;99.90;;;;;;2081271;28;20183;-61
2021/03/22 02:33:06;;;;;;;23.63;10.95;;;1.20;99.90;;;;;;2081825;28;20190;-61
2021/03/22 02:34:25;;;;;;;23.63;9.88;;;1.20;99.90;;;;;;2081263;28;20235;-61
2021/03/22 02:35:36;;;;;;;24.33;10.70;;;1.20;99.90;;;;;;2081448;28;20682;-61
2021/03/22 02:36:56;;;;;;;28.23;11.63;;;1.30;99.90;;;;;;2081868;28;20196;-61
2021/03/22 02:38:24;;;;;;;25.48;11.18;;;1.30;99.90;;;;;;2081374;28;20173;-61
2021/03/22 02:39:37;;;;;;;25.23;10.55;;;1.20;99.90;;;;;;2070501;28;20255;-61
2021/03/22 02:40:49;;;;;;;26.00;10.40;;;1.20;99.90;;;;;;2074785;28;20224;-61
2021/03/22 02:41:59;;;;;;;19.88;9.95;;;1.20;99.90;;;;;;2074739;28;20188;-61
2021/03/22 02:43:03;;;;;;;27.05;11.20;;;1.30;99.90;;;;;;2074081;28;20192;-61
2021/03/22 02:44:31;;;;;;;21.10;9.48;;;1.30;99.90;;;;;;2081363;28;20264;-61
2021/03/22 02:45:54;;;;;;;27.88;10.30;;;1.30;99.90;;;;;;2081809;28;20539;-61
2021/03/22 02:47:06;;;;;;;22.55;9.63;;;1.40;99.90;;;;;;2081842;28;20173;-61
2021/03/22 02:48:12;;;;;;;20.17;9.85;;;1.30;99.90;;;;;;2081425;28;20172;-61
2021/03/22 02:49:15;;;;;;;25.17;11.35;;;1.30;99.90;;;;;;2081904;28;20165;-61
2021/03/22 02:50:22;;;;;;;31.23;10.88;;;1.30;99.90;;;;;;2089184;28;20206;-60
2021/03/22 02:51:56;;;;;;;25.55;11.25;;;1.30;99.90;;;;;;2080454;28;20199;-61
2021/03/22 02:53:44;;;;;;;24.52;10.85;;;1.40;99.90;;;;;;2081560;28;20164;-61
2021/03/22 02:54:56;;;;;;;19.88;8.88;;;1.20;99.90;;;;;;2075094;28;20742;-60
2021/03/22 02:56:12;;;;;;;31.08;10.32;;;1.30;99.90;;;;;;2080926;28;20188;-60
2021/03/22 02:57:19;;;;;;;22.52;10.40;;;1.30;99.90;;;;;;2081273;28;20172;-61
2021/03/22 02:58:27;;;;;;;18.35;10.27;;;1.30;99.90;;;;;;2081724;28;20200;-61
2021/03/22 02:59:39;;;;;;;30.77;11.05;;;1.30;99.90;;;;;;2081037;28;20563;-61
2021/03/22 03:01:19;;;;;;;32.72;11.38;;;1.30;99.90;;;;;;2074388;28;20613;-60
2021/03/22 03:02:21;;;;;;;20.38;9.75;;;1.30;99.90;;;;;;2070115;28;20191;-61
2021/03/22 03:03:24;;;;;;;23.15;11.48;;;1.20;99.90;;;;;;2080715;28;20242;-61
2021/03/22 03:04:26;;;;;;;25.83;12.18;;;1.20;99.90;;;;;;2080905;28;20184;-61
2021/03/22 03:05:31;;;;;;;26.70;11.18;;;1.20;99.90;;;;;;2073055;28;20190;-60
2021/03/22 03:06:54;;;;;;;27.33;10.82;;;1.20;99.90;;;;;;2080906;28;20182;-61
2021/03/22 03:08:01;;;;;;;22.63;9.82;;;1.10;99.90;;;;;;2081723;28;20176;-60
2021/03/22 03:09:02;;;;;;;28.50;11.10;;;1.10;99.90;;;;;;2081695;28;20215;-61
2021/03/22 03:10:07;;;;;;;20.10;10.50;;;1.10;99.90;;;;;;2081495;28;20212;-60
2021/03/22 03:11:10;;;;;;;26.38;10.98;;;1.00;99.90;;;;;;2081177;28;20191;-60
2021/03/22 03:12:20;;;;;;;24.17;11.45;;;1.00;99.90;;;;;;2080840;28;20192;-60
2021/03/22 03:13:21;;;;;;;25.92;10.60;;;1.00;99.90;;;;;;2081122;28;20176;-61
2021/03/22 03:14:23;;;;;;;25.60;10.53;;;1.00;99.90;;;;;;2081631;28;20183;-61
2021/03/22 03:15:24;;;;;;;27.05;10.32;;;0.90;99.90;;;;;;2081152;28;20188;-61
2021/03/22 03:16:25;;;;;;;22.95;11.00;;;0.90;99.90;;;;;;2081170;28;20197;-60
2021/03/22 03:17:25;;;;;;;28.00;11.53;;;0.90;99.90;;;;;;2081728;28;20187;-61
2021/03/22 03:18:26;;;;;;;31.00;11.50;;;0.90;99.90;;;;;;2081693;28;20177;-60
2021/03/22 03:19:27;;;;;;;29.10;11.07;;;0.90;99.90;;;;;;2081471;28;20213;-61
2021/03/22 03:20:30;;;;;;;32.57;11.70;;;0.90;99.90;;;;;;2081616;28;20591;-61
2021/03/22 03:21:32;;;;;;;25.27;10.68;;;0.90;99.90;;;;;;2081179;28;20177;-60
2021/03/22 03:22:34;;;;;;;26.45;11.00;;;0.90;99.90;;;;;;2081573;28;20184;-61
2021/03/22 03:23:34;;;;;;;22.75;10.45;;;0.90;99.90;;;;;;2081619;28;20192;-60
2021/03/22 03:24:37;;;;;;;26.27;10.90;;;0.90;99.90;;;;;;2084000;28;20190;-61
2021/03/22 03:25:38;;;;;;;23.98;10.85;;;0.80;99.90;;;;;;2083850;28;20275;-61
2021/03/22 03:26:38;;;;;;;24.80;11.17;;;0.80;99.90;;;;;;2083855;28;20189;-60
2021/03/22 03:27:39;;;;;;;27.27;10.90;;;0.90;99.90;;;;;;2083619;28;20230;-61
2021/03/22 03:28:40;;;;;;;25.00;10.40;;;0.80;99.90;;;;;;2082702;28;20187;-60
2021/03/22 03:29:42;;;;;;;23.83;10.97;;;0.80;99.90;;;;;;2081708;28;20188;-60
2021/03/22 03:30:43;;;;;;;24.02;10.93;;;0.70;99.90;;;;;;2081692;28;20187;-64
2021/03/22 03:31:43;;;;;;;24.83;9.93;;;0.70;99.90;;;;;;2081275;28;20180;-61
2021/03/22 03:32:44;;;;;;;24.37;11.10;;;0.60;99.90;;;;;;2081533;28;20235;-62
2021/03/22 03:33:45;;;;;;;26.27;10.88;;;0.50;99.90;;;;;;2081536;28;20172;-60
2021/03/22 03:34:46;;;;;;;21.50;11.10;;;0.40;99.90;;;;;;2081594;28;20191;-61
2021/03/22 03:35:47;;;;;;;25.40;10.75;;;0.40;99.90;;;;;;2081551;28;20589;-61
2021/03/22 03:36:48;;;;;;;23.83;10.93;;;0.30;99.90;;;;;;2081645;28;20241;-61
2021/03/22 03:37:49;;;;;;;23.77;10.93;;;0.20;99.90;;;;;;2081710;28;20205;-61
2021/03/22 03:38:49;;;;;;;22.77;9.63;;;0.20;99.90;;;;;;2081490;28;20532;-61
2021/03/22 03:39:50;;;;;;;30.33;11.50;;;0.10;99.90;;;;;;2081402;28;20289;-61
2021/03/22 03:40:51;;;;;;;23.87;11.33;;;0.00;99.90;;;;;;2081005;28;20260;-61
2021/03/22 03:41:52;;;;;;;25.13;11.07;;;0.00;99.90;;;;;;2089143;28;20183;-61
2021/03/22 03:42:53;;;;;;;28.35;11.40;;;-0.10;99.90;;;;;;2088822;28;20175;-59
2021/03/22 03:43:54;;;;;;;37.37;11.40;;;-0.10;99.90;;;;;;2089164;28;20202;-61
2021/03/22 03:44:54;;;;;;;24.23;10.67;;;-0.20;99.90;;;;;;2085364;28;20213;-61
2021/03/22 03:45:55;;;;;;;28.27;10.83;;;-0.30;99.90;;;;;;2081609;28;20214;-60
2021/03/22 03:46:56;;;;;;;25.63;11.05;;;-0.30;99.90;;;;;;2081360;28;20191;-61
2021/03/22 03:47:57;;;;;;;31.03;11.63;;;-0.40;99.90;;;;;;2081474;28;20195;-62
2021/03/22 03:48:57;;;;;;;27.30;11.10;;;-0.40;99.90;;;;;;2081350;28;20183;-62
2021/03/22 03:49:58;;;;;;;24.97;11.53;;;-0.40;99.90;;;;;;2081324;28;20348;-61
2021/03/22 03:51:02;;;;;;;26.47;11.30;;;-0.50;99.90;;;;;;2080869;28;20187;-60
2021/03/22 03:52:07;;;;;;;29.77;11.95;;;-0.60;99.90;;;;;;2080850;28;20187;-62
2021/03/22 03:53:09;;;;;;;33.63;11.82;;;-0.50;99.90;;;;;;2080895;28;20274;-61
2021/03/22 03:54:10;;;;;;;30.70;11.95;;;-0.60;99.90;;;;;;2081354;28;20176;-61
2021/03/22 03:55:13;;;;;;;29.90;12.43;;;-0.60;99.90;;;;;;2081268;28;20191;-61
2021/03/22 03:56:14;;;;;;;28.60;11.38;;;-0.60;99.90;;;;;;2080853;28;20654;-61
2021/03/22 03:57:15;;;;;;;30.37;11.50;;;-0.60;99.90;;;;;;2080960;28;20221;-62
2021/03/22 03:58:17;;;;;;;27.53;12.17;;;-0.60;99.90;;;;;;2081171;28;20558;-60
2021/03/22 03:59:18;;;;;;;29.70;12.10;;;-0.70;99.90;;;;;;2081248;28;20219;-61
2021/03/22 04:00:26;;;;;;;30.90;12.00;;;-0.70;99.90;;;;;;2081376;28;20245;-61
2021/03/22 04:01:27;;;;;;;31.40;11.85;;;-0.70;99.90;;;;;;2079981;28;20296;-62
2021/03/22 04:02:28;;;;;;;28.73;11.55;;;-0.70;99.90;;;;;;2080824;28;20262;-61
2021/03/22 04:03:32;;;;;;;23.53;12.00;;;-0.70;99.90;;;;;;2081258;28;20179;-61
2021/03/22 04:04:33;;;;;;;34.10;12.52;;;-0.70;99.90;;;;;;2081605;28;20268;-62
2021/03/22 04:05:34;;;;;;;26.17;11.93;;;-0.80;99.90;;;;;;2081327;28;20195;-61
2021/03/22 04:06:35;;;;;;;34.30;12.30;;;-0.80;99.90;;;;;;2081372;28;20183;-61
2021/03/22 04:07:36;;;;;;;32.95;12.35;;;-0.80;99.90;;;;;;2081323;28;20236;-61
2021/03/22 04:08:44;;;;;;;28.90;12.33;;;-0.80;99.90;;;;;;2081447;28;20195;-62
2021/03/22 04:09:48;;;;;;;21.50;10.88;;;-0.80;99.90;;;;;;2081337;28;20586;-62
2021/03/22 04:10:50;;;;;;;30.40;11.95;;;-0.90;99.90;;;;;;2080890;28;20215;-60
2021/03/22 04:11:51;;;;;;;31.80;12.10;;;-0.80;99.90;;;;;;2081183;28;20676;-61
2021/03/22 04:12:51;;;;;;;34.07;12.77;;;-0.70;99.90;;;;;;2081262;28;20241;-61
2021/03/22 04:13:54;;;;;;;34.73;13.20;;;-0.70;99.90;;;;;;2081374;28;20187;-62
2021/03/22 04:14:54;;;;;;;30.38;11.90;;;-0.60;99.90;;;;;;2081386;28;20180;-61
2021/03/22 04:15:55;;;;;;;31.73;11.93;;;-0.70;99.90;;;;;;2081366;28;20191;-61
2021/03/22 04:16:56;;;;;;;28.48;11.98;;;-0.60;99.90;;;;;;2081066;28;20648;-61
2021/03/22 04:17:57;;;;;;;25.15;11.80;;;-0.50;99.90;;;;;;2081340;28;20184;-62
2021/03/22 04:18:58;;;;;;;31.27;13.50;;;-0.50;99.90;;;;;;2081271;28;20204;-61
2021/03/22 04:19:59;;;;;;;29.43;12.07;;;-0.50;99.90;;;;;;2081263;28;20215;-61
2021/03/22 04:20:59;;;;;;;29.30;12.43;;;-0.40;99.90;;;;;;2080665;28;20294;-60
2021/03/22 04:22:00;;;;;;;27.63;11.63;;;-0.30;99.90;;;;;;2081237;28;20186;-60
2021/03/22 04:23:02;;;;;;;28.97;11.63;;;-0.30;99.90;;;;;;2080999;28;20248;-61
2021/03/22 04:24:05;;;;;;;27.15;11.50;;;-0.30;99.90;;;;;;2081326;28;20229;-62
2021/03/22 04:25:07;;;;;;;34.70;12.80;;;-0.20;99.90;;;;;;2080945;28;20190;-60
2021/03/22 04:26:08;;;;;;;35.83;12.70;;;-0.20;99.90;;;;;;2081356;28;20195;-61
2021/03/22 04:27:09;;;;;;;30.98;12.30;;;-0.20;99.90;;;;;;2081023;28;20654;-61
2021/03/22 04:28:10;;;;;;;30.20;11.88;;;-0.20;99.90;;;;;;2080980;28;20188;-62
2021/03/22 04:29:11;;;;;;;33.55;12.43;;;-0.20;99.90;;;;;;2080345;28;20875;-64
2021/03/22 04:30:15;;;;;;;29.00;12.20;;;-0.20;99.90;;;;;;2080668;28;20253;-62
2021/03/22 04:31:23;;;;;;;27.80;11.30;;;-0.10;99.90;;;;;;2080319;28;20553;-62
2021/03/22 04:32:25;;;;;;;35.00;11.98;;;0.00;99.90;;;;;;2081221;28;20225;-61
2021/03/22 04:33:26;;;;;;;25.05;11.43;;;0.00;99.90;;;;;;2081007;28;20180;-62
2021/03/22 04:34:26;;;;;;;30.58;11.45;;;0.10;99.90;;;;;;2080547;28;20721;-60
2021/03/22 04:35:27;;;;;;;37.00;12.03;;;0.10;99.90;;;;;;2080411;28;20198;-61
2021/03/22 04:36:35;;;;;;;25.05;11.90;;;0.10;99.90;;;;;;2081123;28;20190;-62
2021/03/22 04:37:36;;;;;;;29.05;11.13;;;0.10;99.90;;;;;;2081139;28;20259;-61
2021/03/22 04:38:37;;;;;;;27.37;11.13;;;0.10;99.90;;;;;;2080969;28;20209;-62
2021/03/22 04:39:39;;;;;;;24.67;10.73;;;0.20;99.90;;;;;;2081017;28;20692;-62
2021/03/22 04:40:40;;;;;;;30.38;10.98;;;0.10;99.90;;;;;;2088562;28;20693;-62
2021/03/22 04:41:41;;;;;;;25.23;11.37;;;0.20;99.90;;;;;;2088222;28;20177;-60
2021/03/22 04:42:41;;;;;;;29.30;10.63;;;0.20;99.90;;;;;;2081095;28;20207;-61
2021/03/22 04:43:43;;;;;;;25.20;10.47;;;0.20;99.90;;;;;;2081043;28;20261;-62
2021/03/22 04:44:43;;;;;;;30.60;11.10;;;0.20;99.90;;;;;;2080955;28;20180;-62
2021/03/22 04:45:44;;;;;;;21.87;10.53;;;0.30;99.90;;;;;;2080965;28;20226;-62
2021/03/22 04:46:45;;;;;;;24.58;11.40;;;0.30;99.90;;;;;;2081148;28;20237;-61
2021/03/22 04:47:47;;;;;;;24.27;10.50;;;0.20;99.90;;;;;;2080780;28;20189;-62
2021/03/22 04:48:47;;;;;;;27.42;10.52;;;0.30;99.90;;;;;;2081152;28;20263;-61
2021/03/22 04:49:48;;;;;;;42.30;23.00;;;0.20;99.90;;;;;;2080846;28;20204;-62
2021/03/22 04:50:49;;;;;;;28.70;13.57;;;0.30;99.90;;;;;;2080730;28;20520;-60
2021/03/22 04:51:50;;;;;;;27.15;10.98;;;0.30;99.90;;;;;;2080843;28;20259;-61
2021/03/22 04:52:51;;;;;;;28.17;10.93;;;0.20;99.90;;;;;;2081096;28;20545;-62
2021/03/22 04:53:52;;;;;;;27.15;10.93;;;0.20;99.90;;;;;;2080062;28;20267;-62
2021/03/22 04:54:53;;;;;;;28.37;10.73;;;0.20;99.90;;;;;;2080435;28;20188;-62
2021/03/22 04:55:53;;;;;;;25.37;10.50;;;0.20;99.90;;;;;;2080964;28;20434;-61
2021/03/22 04:56:54;;;;;;;26.30;10.83;;;0.10;99.90;;;;;;2080904;28;20184;-61
2021/03/22 04:57:55;;;;;;;30.23;11.43;;;0.10;99.90;;;;;;2080991;28;20255;-61
2021/03/22 04:58:55;;;;;;;23.33;10.33;;;0.10;99.90;;;;;;2080889;28;20203;-61
2021/03/22 04:59:57;;;;;;;21.97;10.40;;;0.10;99.90;;;;;;2080963;28;20206;-62
2021/03/22 05:00:57;;;;;;;27.05;10.80;;;0.10;99.90;;;;;;2080409;28;20172;-61
2021/03/22 05:01:58;;;;;;;27.67;10.27;;;0.10;99.90;;;;;;2081294;28;20212;-62
2021/03/22 05:02:59;;;;;;;25.70;10.83;;;0.20;99.90;;;;;;2081095;28;20183;-62
2021/03/22 05:03:59;;;;;;;29.33;11.00;;;0.20;99.90;;;;;;2081099;28;20841;-61
2021/03/22 05:05:00;;;;;;;21.83;9.30;;;0.10;99.90;;;;;;2081096;28;20639;-61
2021/03/22 05:06:03;;;;;;;25.67;9.67;;;0.20;99.90;;;;;;2080468;28;20195;-62
2021/03/22 05:07:04;;;;;;;27.33;10.57;;;0.20;99.90;;;;;;2080435;28;20184;-61
2021/03/22 05:08:09;;;;;;;27.80;11.18;;;0.30;99.90;;;;;;2081158;28;20233;-62
2021/03/22 05:09:10;;;;;;;25.95;10.23;;;0.30;99.90;;;;;;2081135;28;20172;-61
2021/03/22 05:10:18;;;;;;;25.87;9.47;;;0.30;99.90;;;;;;2081772;28;20207;-62
2021/03/22 05:11:18;;;;;;;26.52;10.73;;;0.30;99.90;;;;;;2082235;28;20172;-62
2021/03/22 05:12:19;;;;;;;26.97;10.87;;;0.30;99.90;;;;;;2082819;28;20239;-62
2021/03/22 05:13:23;;;;;;;28.20;11.03;;;0.30;99.90;;;;;;2082857;28;20179;-61
2021/03/22 05:14:24;;;;;;;26.13;10.48;;;0.30;99.90;;;;;;2082874;28;20194;-61
2021/03/22 05:15:25;;;;;;;26.20;10.80;;;0.40;99.90;;;;;;2082879;28;20191;-62
2021/03/22 05:16:26;;;;;;;22.38;9.93;;;0.40;99.90;;;;;;2082681;28;20671;-61
2021/03/22 05:17:27;;;;;;;28.70;10.27;;;0.40;99.90;;;;;;2082852;28;20193;-61
2021/03/22 05:18:30;;;;;;;21.57;10.03;;;0.40;99.90;;;;;;2082880;28;20291;-61
2021/03/22 05:19:31;;;;;;;22.15;10.65;;;0.40;99.90;;;;;;2081784;28;20207;-62
2021/03/22 05:20:38;;;;;;;27.63;10.27;;;0.40;99.90;;;;;;2074102;28;20184;-61
2021/03/22 05:21:39;;;;;;;27.73;10.70;;;0.40;99.90;;;;;;2081492;28;20175;-62
2021/03/22 05:22:39;;;;;;;32.27;9.93;;;0.30;99.90;;;;;;2082806;28;20856;-62
2021/03/22 05:23:41;;;;;;;31.27;10.53;;;0.30;99.90;;;;;;2082827;28;20246;-62
2021/03/22 05:24:41;;;;;;;30.23;11.20;;;0.30;99.90;;;;;;2082785;28;20184;-62
2021/03/22 05:25:42;;;;;;;24.27;11.13;;;0.30;99.90;;;;;;2082936;28;20207;-61
2021/03/22 05:26:43;;;;;;;26.65;10.93;;;0.40;99.90;;;;;;2082850;28;20172;-61
2021/03/22 05:27:45;;;;;;;29.03;9.73;;;0.40;99.90;;;;;;2082595;28;20171;-61
2021/03/22 05:28:46;;;;;;;28.60;10.13;;;0.50;99.90;;;;;;2082915;28;20175;-62
2021/03/22 05:29:46;;;;;;;27.30;10.70;;;0.40;99.90;;;;;;2082937;28;20204;-62
2021/03/22 05:30:47;;;;;;;24.17;9.40;;;0.50;99.90;;;;;;2082575;28;20184;-62
2021/03/22 05:31:50;;;;;;;31.08;10.77;;;0.50;99.90;;;;;;2082529;28;20184;-60